sensor_id;sensor_type;location;lat;lon;timestamp;pressure;altitude;pressure_sealevel;temperature;humidity
38022;BME280;23832;43.216;27.946;2023-02-13T00:00:31;102809.47;;;5.07;52.97
38022;BME280;23832;43.216;27.946;2023-02-13T00:02:33;102814.88;;;5.04;53.10
38022;BME280;23832;43.216;27.946;2023-02-13T00:04:35;102821.94;;;5.02;53.07
38022;BME280;23832;43.216;27.946;2023-02-13T00:06:37;102814.09;;;5.02;53.26
38022;BME280;23832;43.216;27.946;2023-02-13T00:08:40;102822.88;;;5.01;53.54
38022;BME280;23832;43.216;27.946;2023-02-13T00:10:41;102823.81;;;5.00;53.64
38022;BME280;23832;43.216;27.946;2023-02-13T00:12:44;102826.41;;;5.00;53.35
38022;BME280;23832;43.216;27.946;2023-02-13T00:14:45;102825.47;;;5.01;53.34
38022;BME280;23832;43.216;27.946;2023-02-13T00:16:47;102825.56;;;5.00;53.37
38022;BME280;23832;43.216;27.946;2023-02-13T00:18:48;102834.25;;;5.00;53.30
38022;BME280;23832;43.216;27.946;2023-02-13T00:20:57;102828.19;;;5.00;53.55
38022;BME280;23832;43.216;27.946;2023-02-13T00:22:59;102824.66;;;5.01;53.44
38022;BME280;23832;43.216;27.946;2023-02-13T00:25:02;102832.56;;;4.99;53.11
38022;BME280;23832;43.216;27.946;2023-02-13T00:27:03;102826.50;;;4.99;53.29
38022;BME280;23832;43.216;27.946;2023-02-13T00:29:05;102829.97;;;4.99;53.54
38022;BME280;23832;43.216;27.946;2023-02-13T00:31:08;102833.50;;;4.98;53.49
38022;BME280;23832;43.216;27.946;2023-02-13T00:33:09;102832.56;;;4.99;53.34
38022;BME280;23832;43.216;27.946;2023-02-13T00:35:11;102835.28;;;4.98;53.57
38022;BME280;23832;43.216;27.946;2023-02-13T00:37:13;102839.66;;;4.97;53.19
38022;BME280;23832;43.216;27.946;2023-02-13T00:39:15;102838.81;;;4.97;53.21
38022;BME280;23832;43.216;27.946;2023-02-13T00:41:18;102847.66;;;4.94;53.42
38022;BME280;23832;43.216;27.946;2023-02-13T00:43:19;102855.66;;;4.91;53.33
38022;BME280;23832;43.216;27.946;2023-02-13T00:45:21;102854.91;;;4.89;53.59
38022;BME280;23832;43.216;27.946;2023-02-13T00:47:23;102848.94;;;4.87;53.47
38022;BME280;23832;43.216;27.946;2023-02-13T00:49:25;102852.47;;;4.86;53.57
38022;BME280;23832;43.216;27.946;2023-02-13T00:51:26;102845.53;;;4.85;53.28
38022;BME280;23832;43.216;27.946;2023-02-13T00:53:28;102847.38;;;4.83;53.58
38022;BME280;23832;43.216;27.946;2023-02-13T00:55:30;102849.25;;;4.81;53.67
38022;BME280;23832;43.216;27.946;2023-02-13T00:57:33;102848.41;;;4.80;53.71
38022;BME280;23832;43.216;27.946;2023-02-13T00:59:35;102852.03;;;4.78;53.72
38022;BME280;23832;43.216;27.946;2023-02-13T01:01:37;102853.00;;;4.75;53.75
38022;BME280;23832;43.216;27.946;2023-02-13T01:03:39;102853.94;;;4.74;53.76
38022;BME280;23832;43.216;27.946;2023-02-13T01:05:41;102859.25;;;4.73;53.65
38022;BME280;23832;43.216;27.946;2023-02-13T01:07:43;102845.34;;;4.72;53.57
38022;BME280;23832;43.216;27.946;2023-02-13T01:09:45;102842.81;;;4.71;53.73
38022;BME280;23832;43.216;27.946;2023-02-13T01:11:47;102846.38;;;4.70;53.72
38022;BME280;23832;43.216;27.946;2023-02-13T01:13:50;102845.66;;;4.66;53.44
38022;BME280;23832;43.216;27.946;2023-02-13T01:15:51;102844.22;;;4.61;53.43
38022;BME280;23832;43.216;27.946;2023-02-13T01:17:53;102845.31;;;4.56;53.85
38022;BME280;23832;43.216;27.946;2023-02-13T01:19:56;102844.63;;;4.53;53.68
38022;BME280;23832;43.216;27.946;2023-02-13T01:21:58;102843.97;;;4.49;53.85
38022;BME280;23832;43.216;27.946;2023-02-13T01:24:01;102845.78;;;4.47;53.74
38022;BME280;23832;43.216;27.946;2023-02-13T01:26:03;102851.16;;;4.44;54.15
38022;BME280;23832;43.216;27.946;2023-02-13T01:28:06;102837.34;;;4.42;54.16
38022;BME280;23832;43.216;27.946;2023-02-13T01:30:10;102834.81;;;4.41;54.31
38022;BME280;23832;43.216;27.946;2023-02-13T01:32:13;102840.09;;;4.39;54.03
38022;BME280;23832;43.216;27.946;2023-02-13T01:34:14;102841.97;;;4.37;54.56
38022;BME280;23832;43.216;27.946;2023-02-13T01:36:16;102846.50;;;4.34;54.49
38022;BME280;23832;43.216;27.946;2023-02-13T01:38:18;102841.38;;;4.32;54.76
38022;BME280;23832;43.216;27.946;2023-02-13T01:40:20;102843.13;;;4.32;54.82
38022;BME280;23832;43.216;27.946;2023-02-13T01:42:24;102845.66;;;4.33;54.89
38022;BME280;23832;43.216;27.946;2023-02-13T01:44:46;102843.97;;;4.32;55.15
38022;BME280;23832;43.216;27.946;2023-02-13T01:46:51;102838.81;;;4.31;54.67
38022;BME280;23832;43.216;27.946;2023-02-13T01:48:56;102852.88;;;4.28;54.72
38022;BME280;23832;43.216;27.946;2023-02-13T01:51:00;102853.13;;;4.23;54.67
38022;BME280;23832;43.216;27.946;2023-02-13T01:53:03;102855.03;;;4.20;54.89
38022;BME280;23832;43.216;27.946;2023-02-13T01:55:07;102854.25;;;4.18;54.93
38022;BME280;23832;43.216;27.946;2023-02-13T01:57:11;102854.47;;;4.13;54.85
38022;BME280;23832;43.216;27.946;2023-02-13T01:59:15;102857.25;;;4.10;55.29
38022;BME280;23832;43.216;27.946;2023-02-13T02:01:18;102847.81;;;4.08;54.97
38022;BME280;23832;43.216;27.946;2023-02-13T02:03:22;102851.34;;;4.07;55.20
38022;BME280;23832;43.216;27.946;2023-02-13T02:05:25;102853.19;;;4.05;55.30
38022;BME280;23832;43.216;27.946;2023-02-13T02:07:29;102853.34;;;4.02;55.22
38022;BME280;23832;43.216;27.946;2023-02-13T02:09:35;102854.41;;;3.97;55.40
38022;BME280;23832;43.216;27.946;2023-02-13T02:11:40;102850.25;;;3.93;55.44
38022;BME280;23832;43.216;27.946;2023-02-13T02:13:43;102853.88;;;3.91;55.68
38022;BME280;23832;43.216;27.946;2023-02-13T02:15:46;102859.31;;;3.86;55.62
38022;BME280;23832;43.216;27.946;2023-02-13T02:17:48;102865.59;;;3.82;55.74
38022;BME280;23832;43.216;27.946;2023-02-13T02:19:54;102863.16;;;3.79;55.64
38022;BME280;23832;43.216;27.946;2023-02-13T02:29:16;102872.34;;;3.69;55.94
38022;BME280;23832;43.216;27.946;2023-02-13T02:33:41;102867.25;;;3.66;56.33
38022;BME280;23832;43.216;27.946;2023-02-13T02:35:48;102868.25;;;3.63;56.54
38022;BME280;23832;43.216;27.946;2023-02-13T02:37:56;102865.66;;;3.63;56.49
38022;BME280;23832;43.216;27.946;2023-02-13T02:40:06;102868.34;;;3.62;56.52
38022;BME280;23832;43.216;27.946;2023-02-13T02:42:14;102878.84;;;3.60;56.81
38022;BME280;23832;43.216;27.946;2023-02-13T02:44:21;102879.63;;;3.62;57.07
38022;BME280;23832;43.216;27.946;2023-02-13T02:46:28;102882.16;;;3.64;57.07
38022;BME280;23832;43.216;27.946;2023-02-13T02:48:32;102882.16;;;3.64;57.01
38022;BME280;23832;43.216;27.946;2023-02-13T02:50:58;102881.22;;;3.65;56.88
38022;BME280;23832;43.216;27.946;2023-02-13T02:55:26;102877.69;;;3.66;56.90
38022;BME280;23832;43.216;27.946;2023-02-13T02:57:30;102879.53;;;3.64;56.99
38022;BME280;23832;43.216;27.946;2023-02-13T02:59:46;102885.59;;;3.64;56.86
38022;BME280;23832;43.216;27.946;2023-02-13T03:02:06;102883.06;;;3.63;56.89
38022;BME280;23832;43.216;27.946;2023-02-13T03:04:27;102891.81;;;3.62;56.84
38022;BME280;23832;43.216;27.946;2023-02-13T03:06:50;102890.13;;;3.61;57.05
38022;BME280;23832;43.216;27.946;2023-02-13T03:08:54;102889.28;;;3.60;57.01
38022;BME280;23832;43.216;27.946;2023-02-13T03:11:14;102893.69;;;3.58;56.72
38022;BME280;23832;43.216;27.946;2023-02-13T03:13:36;102892.09;;;3.56;57.10
38022;BME280;23832;43.216;27.946;2023-02-13T03:15:40;102900.75;;;3.56;57.02
38022;BME280;23832;43.216;27.946;2023-02-13T03:17:56;102889.47;;;3.56;56.96
38022;BME280;23832;43.216;27.946;2023-02-13T03:20:22;102887.72;;;3.56;57.06
38022;BME280;23832;43.216;27.946;2023-02-13T03:22:48;102885.03;;;3.58;57.24
38022;BME280;23832;43.216;27.946;2023-02-13T03:24:55;102875.44;;;3.58;57.13
38022;BME280;23832;43.216;27.946;2023-02-13T03:27:02;102874.59;;;3.58;57.03
38022;BME280;23832;43.216;27.946;2023-02-13T03:29:08;102885.84;;;3.60;57.06
38022;BME280;23832;43.216;27.946;2023-02-13T03:31:32;102884.94;;;3.59;57.43
38022;BME280;23832;43.216;27.946;2023-02-13T03:33:39;102886.59;;;3.62;57.08
38022;BME280;23832;43.216;27.946;2023-02-13T03:35:46;102886.59;;;3.62;57.02
38022;BME280;23832;43.216;27.946;2023-02-13T03:38:10;102878.84;;;3.60;56.66
38022;BME280;23832;43.216;27.946;2023-02-13T03:40:14;102885.03;;;3.58;56.80
38022;BME280;23832;43.216;27.946;2023-02-13T03:42:19;102882.50;;;3.56;56.82
38022;BME280;23832;43.216;27.946;2023-02-13T03:44:25;102893.16;;;3.52;56.73
38022;BME280;23832;43.216;27.946;2023-02-13T03:46:30;102891.53;;;3.49;56.83
38022;BME280;23832;43.216;27.946;2023-02-13T03:48:33;102896.06;;;3.46;56.75
38022;BME280;23832;43.216;27.946;2023-02-13T03:50:53;102896.22;;;3.42;56.80
38022;BME280;23832;43.216;27.946;2023-02-13T03:52:57;102894.63;;;3.38;57.39
38022;BME280;23832;43.216;27.946;2023-02-13T03:55:03;102890.41;;;3.36;57.21
38022;BME280;23832;43.216;27.946;2023-02-13T03:57:24;102897.41;;;3.35;57.14
38022;BME280;23832;43.216;27.946;2023-02-13T03:59:45;102897.41;;;3.35;57.29
38022;BME280;23832;43.216;27.946;2023-02-13T04:01:50;102899.16;;;3.35;57.31
38022;BME280;23832;43.216;27.946;2023-02-13T04:03:55;102900.00;;;3.35;57.39
38022;BME280;23832;43.216;27.946;2023-02-13T04:06:01;102892.09;;;3.37;57.63
38022;BME280;23832;43.216;27.946;2023-02-13T04:08:04;102885.13;;;3.37;57.66
38022;BME280;23832;43.216;27.946;2023-02-13T04:10:08;102886.75;;;3.40;57.74
38022;BME280;23832;43.216;27.946;2023-02-13T04:12:12;102889.31;;;3.41;57.17
38022;BME280;23832;43.216;27.946;2023-02-13T04:14:18;102895.22;;;3.45;57.55
38022;BME280;23832;43.216;27.946;2023-02-13T04:16:22;102897.81;;;3.45;57.71
38022;BME280;23832;43.216;27.946;2023-02-13T04:18:28;102896.06;;;3.46;57.42
38022;BME280;23832;43.216;27.946;2023-02-13T04:20:30;102896.13;;;3.44;57.44
38022;BME280;23832;43.216;27.946;2023-02-13T04:22:32;102899.72;;;3.41;57.10
38022;BME280;23832;43.216;27.946;2023-02-13T04:24:34;102901.53;;;3.39;57.47
38022;BME280;23832;43.216;27.946;2023-02-13T04:26:38;102900.84;;;3.36;57.30
38022;BME280;23832;43.216;27.946;2023-02-13T04:28:41;102902.75;;;3.32;57.09
38022;BME280;23832;43.216;27.946;2023-02-13T04:30:43;102897.75;;;3.28;57.33
38022;BME280;23832;43.216;27.946;2023-02-13T04:32:44;102899.59;;;3.26;57.38
38022;BME280;23832;43.216;27.946;2023-02-13T04:34:46;102902.31;;;3.23;57.31
38022;BME280;23832;43.216;27.946;2023-02-13T04:36:47;102908.44;;;3.22;57.02
38022;BME280;23832;43.216;27.946;2023-02-13T04:38:49;102904.22;;;3.19;57.13
38022;BME280;23832;43.216;27.946;2023-02-13T04:40:51;102902.69;;;3.15;57.37
38022;BME280;23832;43.216;27.946;2023-02-13T04:42:54;102903.66;;;3.12;57.27
38022;BME280;23832;43.216;27.946;2023-02-13T04:44:57;102896.97;;;3.07;57.48
38022;BME280;23832;43.216;27.946;2023-02-13T04:46:59;102906.59;;;3.05;57.36
38022;BME280;23832;43.216;27.946;2023-02-13T04:49:00;102900.63;;;3.03;57.60
38022;BME280;23832;43.216;27.946;2023-02-13T04:51:02;102896.31;;;3.02;57.80
38022;BME280;23832;43.216;27.946;2023-02-13T04:53:04;102892.94;;;3.00;58.14
38022;BME280;23832;43.216;27.946;2023-02-13T04:55:06;102885.13;;;3.00;57.97
38022;BME280;23832;43.216;27.946;2023-02-13T04:57:08;102890.25;;;3.01;58.18
38022;BME280;23832;43.216;27.946;2023-02-13T04:59:11;102900.75;;;3.00;58.19
38022;BME280;23832;43.216;27.946;2023-02-13T05:01:13;102890.41;;;2.98;58.46
38022;BME280;23832;43.216;27.946;2023-02-13T05:03:15;102904.97;;;3.02;58.90
38022;BME280;23832;43.216;27.946;2023-02-13T05:05:18;102897.16;;;3.02;59.38
38022;BME280;23832;43.216;27.946;2023-02-13T05:07:19;102894.38;;;3.07;59.00
38022;BME280;23832;43.216;27.946;2023-02-13T05:09:21;102906.59;;;3.05;59.41
38022;BME280;23832;43.216;27.946;2023-02-13T05:11:23;102914.31;;;3.08;59.67
38022;BME280;23832;43.216;27.946;2023-02-13T05:13:24;102914.22;;;3.09;60.52
38022;BME280;23832;43.216;27.946;2023-02-13T05:15:27;102919.44;;;3.09;60.53
38022;BME280;23832;43.216;27.946;2023-02-13T05:17:29;102929.78;;;3.11;60.67
38022;BME280;23832;43.216;27.946;2023-02-13T05:19:31;102926.19;;;3.13;60.59
38022;BME280;23832;43.216;27.946;2023-02-13T05:21:32;102931.28;;;3.17;60.77
38022;BME280;23832;43.216;27.946;2023-02-13T05:23:51;102927.53;;;3.22;60.92
38022;BME280;23832;43.216;27.946;2023-02-13T05:25:53;102934.31;;;3.26;61.01
38022;BME280;23832;43.216;27.946;2023-02-13T05:27:54;102931.41;;;3.32;60.47
38022;BME280;23832;43.216;27.946;2023-02-13T05:29:56;102931.16;;;3.38;60.86
38022;BME280;23832;43.216;27.946;2023-02-13T05:31:58;102932.56;;;3.46;60.70
38022;BME280;23832;43.216;27.946;2023-02-13T05:34:00;102922.53;;;3.55;60.81
38022;BME280;23832;43.216;27.946;2023-02-13T05:36:02;102932.56;;;3.64;60.91
38022;BME280;23832;43.216;27.946;2023-02-13T05:38:04;102937.25;;;3.75;60.82
38022;BME280;23832;43.216;27.946;2023-02-13T05:40:07;102937.47;;;3.89;61.05
38022;BME280;23832;43.216;27.946;2023-02-13T05:42:09;102933.41;;;4.01;61.05
38022;BME280;23832;43.216;27.946;2023-02-13T05:44:11;102938.94;;;4.12;60.53
38022;BME280;23832;43.216;27.946;2023-02-13T05:46:12;102935.66;;;4.26;60.69
38022;BME280;23832;43.216;27.946;2023-02-13T05:48:16;102938.41;;;4.40;60.69
38022;BME280;23832;43.216;27.946;2023-02-13T05:50:18;102945.41;;;4.57;60.54
38022;BME280;23832;43.216;27.946;2023-02-13T05:52:21;102947.19;;;4.74;60.26
38022;BME280;23832;43.216;27.946;2023-02-13T05:54:23;102946.41;;;4.89;60.12
38022;BME280;23832;43.216;27.946;2023-02-13T05:56:25;102943.75;;;5.06;59.71
38022;BME280;23832;43.216;27.946;2023-02-13T05:58:26;102950.53;;;5.26;59.25
38022;BME280;23832;43.216;27.946;2023-02-13T06:00:28;102949.72;;;5.41;58.42
38022;BME280;23832;43.216;27.946;2023-02-13T06:02:30;102947.13;;;5.57;58.57
38022;BME280;23832;43.216;27.946;2023-02-13T06:04:33;102950.75;;;5.70;57.70
38022;BME280;23832;43.216;27.946;2023-02-13T06:06:34;102952.34;;;5.89;57.37
38022;BME280;23832;43.216;27.946;2023-02-13T06:08:36;102955.91;;;6.04;57.42
38022;BME280;23832;43.216;27.946;2023-02-13T06:10:38;102948.84;;;6.20;56.52
38022;BME280;23832;43.216;27.946;2023-02-13T06:12:41;102949.00;;;6.33;56.16
38022;BME280;23832;43.216;27.946;2023-02-13T06:14:42;102958.66;;;6.46;55.50
38022;BME280;23832;43.216;27.946;2023-02-13T06:16:44;102942.13;;;6.60;55.30
38022;BME280;23832;43.216;27.946;2023-02-13T06:18:46;102949.84;;;6.77;55.60
38022;BME280;23832;43.216;27.946;2023-02-13T06:20:49;102950.41;;;6.97;56.15
38022;BME280;23832;43.216;27.946;2023-02-13T06:22:51;102948.34;;;7.16;55.41
38022;BME280;23832;43.216;27.946;2023-02-13T06:24:52;102941.88;;;7.36;55.66
38022;BME280;23832;43.216;27.946;2023-02-13T06:26:54;102944.94;;;7.57;54.96
38022;BME280;23832;43.216;27.946;2023-02-13T06:28:57;102945.47;;;7.76;54.84
38022;BME280;23832;43.216;27.946;2023-02-13T06:30:58;102951.09;;;7.97;55.18
38022;BME280;23832;43.216;27.946;2023-02-13T06:33:00;102959.28;;;8.19;54.43
38022;BME280;23832;43.216;27.946;2023-02-13T06:35:02;102950.97;;;8.40;54.21
38022;BME280;23832;43.216;27.946;2023-02-13T06:37:05;102945.19;;;8.60;53.57
38022;BME280;23832;43.216;27.946;2023-02-13T06:39:07;102948.19;;;8.81;53.61
38022;BME280;23832;43.216;27.946;2023-02-13T06:41:09;102951.09;;;9.02;53.07
38022;BME280;23832;43.216;27.946;2023-02-13T06:43:11;102945.19;;;9.24;53.36
38022;BME280;23832;43.216;27.946;2023-02-13T06:45:13;102949.66;;;9.47;52.87
38022;BME280;23832;43.216;27.946;2023-02-13T06:47:15;102949.91;;;9.68;52.35
38022;BME280;23832;43.216;27.946;2023-02-13T06:49:16;102951.22;;;9.86;51.72
38022;BME280;23832;43.216;27.946;2023-02-13T06:51:18;102949.03;;;10.04;51.16
38022;BME280;23832;43.216;27.946;2023-02-13T06:53:21;102950.31;;;10.22;50.48
38022;BME280;23832;43.216;27.946;2023-02-13T06:55:23;102956.97;;;10.39;49.81
38022;BME280;23832;43.216;27.946;2023-02-13T06:57:26;102950.69;;;10.53;48.56
38022;BME280;23832;43.216;27.946;2023-02-13T06:59:32;102946.16;;;10.66;47.92
38022;BME280;23832;43.216;27.946;2023-02-13T07:01:33;102953.84;;;10.80;48.05
38022;BME280;23832;43.216;27.946;2023-02-13T07:03:35;102951.09;;;10.93;47.95
38022;BME280;23832;43.216;27.946;2023-02-13T07:05:38;102948.38;;;11.06;47.20
38022;BME280;23832;43.216;27.946;2023-02-13T07:07:40;102949.66;;;11.23;47.63
38022;BME280;23832;43.216;27.946;2023-02-13T07:09:43;102959.38;;;11.45;47.94
38022;BME280;23832;43.216;27.946;2023-02-13T07:11:45;102962.09;;;11.65;47.60
38022;BME280;23832;43.216;27.946;2023-02-13T07:13:47;102945.03;;;11.81;46.89
38022;BME280;23832;43.216;27.946;2023-02-13T07:15:50;102948.81;;;11.99;47.14
38022;BME280;23832;43.216;27.946;2023-02-13T07:17:55;102951.06;;;12.15;46.51
38022;BME280;23832;43.216;27.946;2023-02-13T07:19:57;102946.88;;;12.33;46.39
38022;BME280;23832;43.216;27.946;2023-02-13T07:21:59;102945.72;;;12.47;45.92
38022;BME280;23832;43.216;27.946;2023-02-13T07:24:01;102953.47;;;12.60;44.70
38022;BME280;23832;43.216;27.946;2023-02-13T07:26:04;102953.53;;;12.69;43.99
38022;BME280;23832;43.216;27.946;2023-02-13T07:28:06;102949.13;;;12.79;44.13
38022;BME280;23832;43.216;27.946;2023-02-13T07:30:08;102950.84;;;12.90;43.85
38022;BME280;23832;43.216;27.946;2023-02-13T07:32:09;102945.34;;;13.03;43.76
38022;BME280;23832;43.216;27.946;2023-02-13T07:34:11;102943.81;;;13.10;43.07
38022;BME280;23832;43.216;27.946;2023-02-13T07:36:13;102946.78;;;13.17;41.88
38022;BME280;23832;43.216;27.946;2023-02-13T07:38:15;102954.59;;;13.18;41.42
38022;BME280;23832;43.216;27.946;2023-02-13T07:40:16;102950.63;;;13.24;41.90
38022;BME280;23832;43.216;27.946;2023-02-13T07:42:19;102947.84;;;13.35;41.81
38022;BME280;23832;43.216;27.946;2023-02-13T07:44:21;102940.22;;;13.51;42.35
38022;BME280;23832;43.216;27.946;2023-02-13T07:46:23;102934.13;;;13.70;41.87
38022;BME280;23832;43.216;27.946;2023-02-13T07:48:25;102936.66;;;13.91;41.62
38022;BME280;23832;43.216;27.946;2023-02-13T07:50:27;102933.44;;;14.16;41.28
38022;BME280;23832;43.216;27.946;2023-02-13T07:52:29;102925.06;;;14.40;40.72
38022;BME280;23832;43.216;27.946;2023-02-13T07:54:30;102929.06;;;14.64;40.61
38022;BME280;23832;43.216;27.946;2023-02-13T07:56:32;102917.28;;;14.86;40.20
38022;BME280;23832;43.216;27.946;2023-02-13T07:58:36;102913.53;;;15.06;40.13
38022;BME280;23832;43.216;27.946;2023-02-13T08:00:39;102916.41;;;15.22;39.28
38022;BME280;23832;43.216;27.946;2023-02-13T08:02:40;102912.56;;;15.34;38.68
38022;BME280;23832;43.216;27.946;2023-02-13T08:04:42;102913.78;;;15.40;37.90
38022;BME280;23832;43.216;27.946;2023-02-13T08:06:45;102911.97;;;15.41;37.04
38022;BME280;23832;43.216;27.946;2023-02-13T08:08:47;102912.41;;;15.36;36.21
38022;BME280;23832;43.216;27.946;2023-02-13T08:11:15;102913.75;;;15.22;36.00
38022;BME280;23832;43.216;27.946;2023-02-13T08:13:38;102911.03;;;15.04;35.90
38022;BME280;23832;43.216;27.946;2023-02-13T08:15:40;102916.97;;;14.89;36.18
38022;BME280;23832;43.216;27.946;2023-02-13T08:17:43;102918.97;;;14.77;36.25
38022;BME280;23832;43.216;27.946;2023-02-13T08:19:46;102920.97;;;14.65;36.27
38022;BME280;23832;43.216;27.946;2023-02-13T08:21:49;102918.91;;;14.50;36.05
38022;BME280;23832;43.216;27.946;2023-02-13T08:23:52;102924.63;;;14.35;36.22
38022;BME280;23832;43.216;27.946;2023-02-13T08:25:57;102925.78;;;14.23;36.35
38022;BME280;23832;43.216;27.946;2023-02-13T08:27:59;102931.91;;;14.14;36.65
38022;BME280;23832;43.216;27.946;2023-02-13T08:30:03;102935.25;;;14.06;36.74
38022;BME280;23832;43.216;27.946;2023-02-13T08:32:05;102932.47;;;13.98;36.69
38022;BME280;23832;43.216;27.946;2023-02-13T08:34:08;102936.09;;;13.97;37.15
38022;BME280;23832;43.216;27.946;2023-02-13T08:36:11;102925.22;;;13.90;36.97
38022;BME280;23832;43.216;27.946;2023-02-13T08:38:18;102916.41;;;13.90;37.07
38022;BME280;23832;43.216;27.946;2023-02-13T08:40:20;102916.41;;;13.90;37.24
38022;BME280;23832;43.216;27.946;2023-02-13T08:42:22;102915.72;;;13.88;36.74
38022;BME280;23832;43.216;27.946;2023-02-13T08:44:24;102902.63;;;13.77;37.52
38022;BME280;23832;43.216;27.946;2023-02-13T08:46:27;102920.19;;;13.97;37.34
38022;BME280;23832;43.216;27.946;2023-02-13T08:48:29;102920.88;;;13.99;36.80
38022;BME280;23832;43.216;27.946;2023-02-13T08:50:30;102915.19;;;14.04;37.25
38022;BME280;23832;43.216;27.946;2023-02-13T08:52:32;102911.81;;;14.11;37.13
38022;BME280;23832;43.216;27.946;2023-02-13T08:54:34;102917.38;;;14.18;36.90
38022;BME280;23832;43.216;27.946;2023-02-13T08:56:36;102914.31;;;14.23;36.63
38022;BME280;23832;43.216;27.946;2023-02-13T08:58:38;102921.69;;;14.29;36.83
38022;BME280;23832;43.216;27.946;2023-02-13T09:00:39;102919.16;;;14.37;36.80
38022;BME280;23832;43.216;27.946;2023-02-13T09:02:42;102914.59;;;14.48;36.95
38022;BME280;23832;43.216;27.946;2023-02-13T09:04:44;102916.78;;;14.63;36.92
38022;BME280;23832;43.216;27.946;2023-02-13T09:06:46;102911.16;;;14.75;36.80
38022;BME280;23832;43.216;27.946;2023-02-13T09:08:48;102907.34;;;14.88;36.33
38022;BME280;23832;43.216;27.946;2023-02-13T09:10:54;102898.19;;;15.00;36.35
38022;BME280;23832;43.216;27.946;2023-02-13T09:12:57;102877.25;;;14.97;35.81
38022;BME280;23832;43.216;27.946;2023-02-13T09:15:00;102895.84;;;15.24;35.50
38022;BME280;23832;43.216;27.946;2023-02-13T09:17:02;102897.69;;;15.42;35.80
38022;BME280;23832;43.216;27.946;2023-02-13T09:19:04;102898.69;;;15.58;35.50
38022;BME280;23832;43.216;27.946;2023-02-13T09:21:07;102896.41;;;15.73;35.23
38022;BME280;23832;43.216;27.946;2023-02-13T09:23:09;102898.81;;;15.84;34.74
38022;BME280;23832;43.216;27.946;2023-02-13T09:25:10;102891.25;;;15.98;34.96
38022;BME280;23832;43.216;27.946;2023-02-13T09:27:12;102894.38;;;16.11;34.83
38022;BME280;23832;43.216;27.946;2023-02-13T09:29:14;102890.22;;;16.34;34.81
38022;BME280;23832;43.216;27.946;2023-02-13T09:31:18;102883.50;;;16.48;33.78
38022;BME280;23832;43.216;27.946;2023-02-13T09:33:19;102851.34;;;16.41;33.84
38022;BME280;23832;43.216;27.946;2023-02-13T09:35:23;102868.28;;;16.66;34.21
38022;BME280;23832;43.216;27.946;2023-02-13T09:37:24;102877.91;;;16.85;34.86
38022;BME280;23832;43.216;27.946;2023-02-13T09:39:26;102862.00;;;17.10;34.54
38022;BME280;23832;43.216;27.946;2023-02-13T09:41:29;102862.44;;;17.47;35.39
38022;BME280;23832;43.216;27.946;2023-02-13T09:43:34;102855.63;;;17.85;35.08
38022;BME280;23832;43.216;27.946;2023-02-13T09:45:36;102850.94;;;18.20;34.28
38022;BME280;23832;43.216;27.946;2023-02-13T09:47:39;102851.06;;;18.43;33.15
38022;BME280;23832;43.216;27.946;2023-02-13T09:49:43;102842.66;;;18.62;33.06
38022;BME280;23832;43.216;27.946;2023-02-13T09:51:47;102837.91;;;18.89;33.38
38022;BME280;23832;43.216;27.946;2023-02-13T09:53:52;102838.41;;;19.23;33.47
38022;BME280;23832;43.216;27.946;2023-02-13T09:55:57;102829.91;;;19.43;32.03
38022;BME280;23832;43.216;27.946;2023-02-13T09:58:03;102832.97;;;19.54;31.26
38022;BME280;23832;43.216;27.946;2023-02-13T10:00:10;102829.13;;;19.57;30.50
38022;BME280;23832;43.216;27.946;2023-02-13T10:02:19;102824.09;;;19.62;30.42
38022;BME280;23832;43.216;27.946;2023-02-13T10:04:24;102816.28;;;19.75;30.22
38022;BME280;23832;43.216;27.946;2023-02-13T10:06:30;102812.19;;;19.88;30.30
38022;BME280;23832;43.216;27.946;2023-02-13T10:10:52;102810.16;;;20.19;29.29
38022;BME280;23832;43.216;27.946;2023-02-13T10:12:55;102807.31;;;20.35;29.35
38022;BME280;23832;43.216;27.946;2023-02-13T10:15:07;102799.66;;;20.62;29.81
38022;BME280;23832;43.216;27.946;2023-02-13T10:17:15;102803.22;;;20.84;29.47
38022;BME280;23832;43.216;27.946;2023-02-13T10:19:23;102801.78;;;21.03;29.09
38022;BME280;23832;43.216;27.946;2023-02-13T10:21:30;102803.66;;;21.23;28.83
38022;BME280;23832;43.216;27.946;2023-02-13T10:23:34;102800.66;;;21.54;29.62
38022;BME280;23832;43.216;27.946;2023-02-13T10:25:41;102791.91;;;21.95;29.67
38022;BME280;23832;43.216;27.946;2023-02-13T10:27:46;102792.16;;;22.35;29.42
38022;BME280;23832;43.216;27.946;2023-02-13T10:29:52;102790.69;;;22.74;28.73
38022;BME280;23832;43.216;27.946;2023-02-13T10:32:13;102791.88;;;23.19;29.10
38022;BME280;23832;43.216;27.946;2023-02-13T10:34:16;102785.91;;;23.63;28.91
38022;BME280;23832;43.216;27.946;2023-02-13T10:36:21;102787.94;;;24.07;28.55
38022;BME280;23832;43.216;27.946;2023-02-13T10:38:26;102783.91;;;24.50;27.94
38022;BME280;23832;43.216;27.946;2023-02-13T10:40:30;102788.06;;;24.90;28.02
38022;BME280;23832;43.216;27.946;2023-02-13T10:42:35;102773.72;;;25.28;27.37
38022;BME280;23832;43.216;27.946;2023-02-13T10:44:46;102773.00;;;25.64;26.64
38022;BME280;23832;43.216;27.946;2023-02-13T10:46:52;102776.44;;;25.96;26.29
38022;BME280;23832;43.216;27.946;2023-02-13T10:49:09;102775.50;;;26.27;25.58
38022;BME280;23832;43.216;27.946;2023-02-13T10:51:15;102764.88;;;26.63;25.94
38022;BME280;23832;43.216;27.946;2023-02-13T10:53:20;102757.44;;;26.88;24.22
38022;BME280;23832;43.216;27.946;2023-02-13T10:55:28;102758.59;;;27.10;24.59
38022;BME280;23832;43.216;27.946;2023-02-13T10:57:35;102748.97;;;27.26;23.84
38022;BME280;23832;43.216;27.946;2023-02-13T10:59:42;102756.66;;;27.41;23.45